sensor_id;sensor_type;location;lat;lon;timestamp;P1;durP1;ratioP1;P2;durP2;ratioP2
48002;SDS011;33768;48.578;11.574;2023-03-21T00:00:14;2.70;;;1.90;;
48002;SDS011;33768;48.578;11.574;2023-03-21T00:03:19;2.43;;;2.00;;
48002;SDS011;33768;48.578;11.574;2023-03-21T00:06:24;2.10;;;1.90;;
48002;SDS011;33768;48.578;11.574;2023-03-21T00:09:29;4.43;;;2.00;;
48002;SDS011;33768;48.578;11.574;2023-03-21T00:12:33;1.80;;;1.60;;
48002;SDS011;33768;48.578;11.574;2023-03-21T00:15:40;3.23;;;2.10;;
48002;SDS011;33768;48.578;11.574;2023-03-21T00:18:57;2.70;;;1.87;;
48002;SDS011;33768;48.578;11.574;2023-03-21T00:22:01;2.10;;;1.90;;
48002;SDS011;33768;48.578;11.574;2023-03-21T00:25:05;2.80;;;1.73;;
48002;SDS011;33768;48.578;11.574;2023-03-21T00:28:11;3.33;;;1.83;;
48002;SDS011;33768;48.578;11.574;2023-03-21T00:31:15;2.83;;;2.07;;
48002;SDS011;33768;48.578;11.574;2023-03-21T00:34:19;4.07;;;2.20;;
48002;SDS011;33768;48.578;11.574;2023-03-21T00:37:23;2.93;;;2.10;;
48002;SDS011;33768;48.578;11.574;2023-03-21T00:40:28;2.00;;;1.60;;
48002;SDS011;33768;48.578;11.574;2023-03-21T00:43:32;2.67;;;1.70;;
48002;SDS011;33768;48.578;11.574;2023-03-21T00:46:38;2.53;;;2.00;;
48002;SDS011;33768;48.578;11.574;2023-03-21T00:49:43;4.60;;;2.03;;
48002;SDS011;33768;48.578;11.574;2023-03-21T00:52:47;2.13;;;1.90;;
48002;SDS011;33768;48.578;11.574;2023-03-21T00:55:51;2.37;;;1.93;;
48002;SDS011;33768;48.578;11.574;2023-03-21T00:58:55;3.27;;;2.03;;
48002;SDS011;33768;48.578;11.574;2023-03-21T01:01:59;2.40;;;1.73;;
48002;SDS011;33768;48.578;11.574;2023-03-21T01:05:04;3.70;;;2.10;;
48002;SDS011;33768;48.578;11.574;2023-03-21T01:08:10;5.63;;;2.10;;
48002;SDS011;33768;48.578;11.574;2023-03-21T01:11:16;2.20;;;2.00;;
48002;SDS011;33768;48.578;11.574;2023-03-21T01:14:22;2.53;;;1.63;;
48002;SDS011;33768;48.578;11.574;2023-03-21T01:17:27;2.27;;;1.90;;
48002;SDS011;33768;48.578;11.574;2023-03-21T01:20:31;2.20;;;1.83;;
48002;SDS011;33768;48.578;11.574;2023-03-21T01:23:34;2.00;;;1.80;;
48002;SDS011;33768;48.578;11.574;2023-03-21T01:26:39;2.73;;;2.00;;
48002;SDS011;33768;48.578;11.574;2023-03-21T01:29:43;1.67;;;1.50;;
48002;SDS011;33768;48.578;11.574;2023-03-21T01:32:47;3.13;;;2.10;;
48002;SDS011;33768;48.578;11.574;2023-03-21T01:35:51;3.07;;;2.00;;
48002;SDS011;33768;48.578;11.574;2023-03-21T01:38:55;2.00;;;1.80;;
48002;SDS011;33768;48.578;11.574;2023-03-21T01:42:00;5.97;;;2.67;;
48002;SDS011;33768;48.578;11.574;2023-03-21T01:45:57;3.40;;;1.83;;
48002;SDS011;33768;48.578;11.574;2023-03-21T01:48:53;2.87;;;2.33;;
48002;SDS011;33768;48.578;11.574;2023-03-21T01:52:06;2.37;;;2.10;;
48002;SDS011;33768;48.578;11.574;2023-03-21T01:55:13;2.77;;;1.97;;
48002;SDS011;33768;48.578;11.574;2023-03-21T01:58:32;3.87;;;2.30;;
48002;SDS011;33768;48.578;11.574;2023-03-21T02:01:46;2.13;;;1.60;;
48002;SDS011;33768;48.578;11.574;2023-03-21T02:04:54;3.43;;;2.27;;
48002;SDS011;33768;48.578;11.574;2023-03-21T02:08:03;1.80;;;1.67;;
48002;SDS011;33768;48.578;11.574;2023-03-21T02:11:08;2.33;;;1.90;;
48002;SDS011;33768;48.578;11.574;2023-03-21T02:14:19;2.57;;;2.07;;
48002;SDS011;33768;48.578;11.574;2023-03-21T02:17:41;2.10;;;1.90;;
48002;SDS011;33768;48.578;11.574;2023-03-21T02:20:57;2.00;;;1.80;;
48002;SDS011;33768;48.578;11.574;2023-03-21T02:27:45;4.47;;;2.07;;
48002;SDS011;33768;48.578;11.574;2023-03-21T02:34:17;2.40;;;2.13;;
48002;SDS011;33768;48.578;11.574;2023-03-21T02:37:47;2.50;;;2.00;;
48002;SDS011;33768;48.578;11.574;2023-03-21T02:41:12;3.07;;;2.07;;
48002;SDS011;33768;48.578;11.574;2023-03-21T02:48:02;3.10;;;2.20;;
48002;SDS011;33768;48.578;11.574;2023-03-21T02:51:13;3.73;;;2.20;;
48002;SDS011;33768;48.578;11.574;2023-03-21T02:54:20;2.40;;;2.20;;
48002;SDS011;33768;48.578;11.574;2023-03-21T02:57:27;7.30;;;2.50;;
48002;SDS011;33768;48.578;11.574;2023-03-21T03:00:33;2.10;;;1.90;;
48002;SDS011;33768;48.578;11.574;2023-03-21T03:03:39;3.63;;;2.40;;
48002;SDS011;33768;48.578;11.574;2023-03-21T03:10:20;3.53;;;2.27;;
48002;SDS011;33768;48.578;11.574;2023-03-21T03:20:11;3.50;;;2.37;;
48002;SDS011;33768;48.578;11.574;2023-03-21T03:30:13;2.70;;;2.40;;
48002;SDS011;33768;48.578;11.574;2023-03-21T03:33:18;2.90;;;2.60;;
48002;SDS011;33768;48.578;11.574;2023-03-21T03:36:28;2.93;;;2.23;;
48002;SDS011;33768;48.578;11.574;2023-03-21T03:39:46;5.20;;;2.67;;
48002;SDS011;33768;48.578;11.574;2023-03-21T03:43:04;4.00;;;2.40;;
48002;SDS011;33768;48.578;11.574;2023-03-21T03:46:17;2.73;;;2.33;;
48002;SDS011;33768;48.578;11.574;2023-03-21T03:49:28;3.83;;;2.83;;
48002;SDS011;33768;48.578;11.574;2023-03-21T03:52:45;3.93;;;2.93;;
48002;SDS011;33768;48.578;11.574;2023-03-21T03:55:55;3.87;;;2.77;;
48002;SDS011;33768;48.578;11.574;2023-03-21T03:59:00;3.50;;;2.40;;
48002;SDS011;33768;48.578;11.574;2023-03-21T04:02:23;2.83;;;2.53;;
48002;SDS011;33768;48.578;11.574;2023-03-21T04:05:27;3.70;;;2.70;;
48002;SDS011;33768;48.578;11.574;2023-03-21T04:08:32;2.77;;;2.57;;
48002;SDS011;33768;48.578;11.574;2023-03-21T04:11:36;3.17;;;2.57;;
48002;SDS011;33768;48.578;11.574;2023-03-21T04:14:40;3.80;;;2.73;;
48002;SDS011;33768;48.578;11.574;2023-03-21T04:17:45;4.27;;;3.20;;
48002;SDS011;33768;48.578;11.574;2023-03-21T04:20:49;2.63;;;2.43;;
48002;SDS011;33768;48.578;11.574;2023-03-21T04:23:54;3.30;;;3.00;;
48002;SDS011;33768;48.578;11.574;2023-03-21T04:26:59;6.23;;;2.97;;
48002;SDS011;33768;48.578;11.574;2023-03-21T04:30:14;5.67;;;3.27;;
48002;SDS011;33768;48.578;11.574;2023-03-21T04:33:27;6.40;;;3.63;;
48002;SDS011;33768;48.578;11.574;2023-03-21T04:36:34;4.57;;;3.00;;
48002;SDS011;33768;48.578;11.574;2023-03-21T04:39:45;6.67;;;2.90;;
48002;SDS011;33768;48.578;11.574;2023-03-21T04:42:50;4.57;;;3.17;;
48002;SDS011;33768;48.578;11.574;2023-03-21T04:45:54;3.33;;;2.67;;
48002;SDS011;33768;48.578;11.574;2023-03-21T04:48:58;3.20;;;2.67;;
48002;SDS011;33768;48.578;11.574;2023-03-21T04:52:02;3.60;;;2.70;;
48002;SDS011;33768;48.578;11.574;2023-03-21T04:55:06;4.83;;;2.70;;
48002;SDS011;33768;48.578;11.574;2023-03-21T04:58:12;3.57;;;2.50;;
48002;SDS011;33768;48.578;11.574;2023-03-21T05:01:17;4.93;;;2.50;;
48002;SDS011;33768;48.578;11.574;2023-03-21T05:04:23;2.53;;;2.33;;
48002;SDS011;33768;48.578;11.574;2023-03-21T05:07:29;5.03;;;2.40;;
48002;SDS011;33768;48.578;11.574;2023-03-21T05:10:34;4.83;;;2.77;;
48002;SDS011;33768;48.578;11.574;2023-03-21T05:13:38;7.23;;;2.40;;
48002;SDS011;33768;48.578;11.574;2023-03-21T05:16:43;3.50;;;2.33;;
48002;SDS011;33768;48.578;11.574;2023-03-21T05:19:53;4.17;;;2.13;;
48002;SDS011;33768;48.578;11.574;2023-03-21T05:22:59;5.70;;;2.30;;
48002;SDS011;33768;48.578;11.574;2023-03-21T05:26:04;3.77;;;2.40;;
48002;SDS011;33768;48.578;11.574;2023-03-21T05:29:22;3.90;;;2.20;;
48002;SDS011;33768;48.578;11.574;2023-03-21T05:32:34;4.07;;;2.40;;
48002;SDS011;33768;48.578;11.574;2023-03-21T05:35:39;2.47;;;2.20;;
48002;SDS011;33768;48.578;11.574;2023-03-21T05:38:45;3.50;;;2.53;;
48002;SDS011;33768;48.578;11.574;2023-03-21T05:41:50;3.40;;;2.30;;
48002;SDS011;33768;48.578;11.574;2023-03-21T05:44:54;3.97;;;2.40;;
48002;SDS011;33768;48.578;11.574;2023-03-21T05:48:05;4.63;;;2.70;;
48002;SDS011;33768;48.578;11.574;2023-03-21T05:51:17;3.20;;;2.47;;
48002;SDS011;33768;48.578;11.574;2023-03-21T05:54:22;4.37;;;2.23;;
48002;SDS011;33768;48.578;11.574;2023-03-21T05:57:27;7.00;;;2.50;;
48002;SDS011;33768;48.578;11.574;2023-03-21T06:00:37;3.27;;;2.77;;
48002;SDS011;33768;48.578;11.574;2023-03-21T06:04:04;3.23;;;2.30;;
48002;SDS011;33768;48.578;11.574;2023-03-21T06:07:08;3.57;;;2.60;;
48002;SDS011;33768;48.578;11.574;2023-03-21T06:10:15;4.97;;;3.10;;
48002;SDS011;33768;48.578;11.574;2023-03-21T06:13:23;6.13;;;2.70;;
48002;SDS011;33768;48.578;11.574;2023-03-21T06:16:27;6.17;;;2.90;;
48002;SDS011;33768;48.578;11.574;2023-03-21T06:19:32;2.87;;;2.60;;
48002;SDS011;33768;48.578;11.574;2023-03-21T06:22:51;4.33;;;2.50;;
48002;SDS011;33768;48.578;11.574;2023-03-21T06:25:55;4.47;;;2.70;;
48002;SDS011;33768;48.578;11.574;2023-03-21T06:29:01;3.53;;;2.30;;
48002;SDS011;33768;48.578;11.574;2023-03-21T06:32:05;3.53;;;2.93;;
48002;SDS011;33768;48.578;11.574;2023-03-21T06:35:10;7.17;;;3.00;;
48002;SDS011;33768;48.578;11.574;2023-03-21T06:38:15;11.47;;;3.20;;
48002;SDS011;33768;48.578;11.574;2023-03-21T06:41:19;6.83;;;3.10;;
48002;SDS011;33768;48.578;11.574;2023-03-21T06:44:33;7.97;;;3.20;;
48002;SDS011;33768;48.578;11.574;2023-03-21T06:47:42;3.20;;;2.50;;
48002;SDS011;33768;48.578;11.574;2023-03-21T06:50:56;4.60;;;2.67;;
48002;SDS011;33768;48.578;11.574;2023-03-21T06:54:02;3.57;;;2.70;;
48002;SDS011;33768;48.578;11.574;2023-03-21T06:57:15;15.13;;;3.03;;
48002;SDS011;33768;48.578;11.574;2023-03-21T07:00:21;8.43;;;3.47;;
48002;SDS011;33768;48.578;11.574;2023-03-21T07:03:29;5.40;;;2.97;;
48002;SDS011;33768;48.578;11.574;2023-03-21T07:06:37;9.60;;;3.77;;
48002;SDS011;33768;48.578;11.574;2023-03-21T07:09:41;5.00;;;3.37;;
48002;SDS011;33768;48.578;11.574;2023-03-21T07:12:45;5.53;;;3.00;;
48002;SDS011;33768;48.578;11.574;2023-03-21T07:15:56;8.53;;;3.10;;
48002;SDS011;33768;48.578;11.574;2023-03-21T07:19:01;6.27;;;3.43;;
48002;SDS011;33768;48.578;11.574;2023-03-21T07:22:07;5.80;;;3.13;;
48002;SDS011;33768;48.578;11.574;2023-03-21T07:25:11;7.27;;;4.07;;
48002;SDS011;33768;48.578;11.574;2023-03-21T07:28:17;6.00;;;3.73;;
48002;SDS011;33768;48.578;11.574;2023-03-21T07:31:22;5.30;;;3.37;;
48002;SDS011;33768;48.578;11.574;2023-03-21T07:34:28;5.73;;;4.00;;
48002;SDS011;33768;48.578;11.574;2023-03-21T07:37:36;6.33;;;3.70;;
48002;SDS011;33768;48.578;11.574;2023-03-21T07:40:40;5.43;;;4.07;;
48002;SDS011;33768;48.578;11.574;2023-03-21T07:43:44;6.77;;;4.30;;
48002;SDS011;33768;48.578;11.574;2023-03-21T07:46:48;7.97;;;4.30;;
48002;SDS011;33768;48.578;11.574;2023-03-21T07:49:53;7.57;;;4.93;;
48002;SDS011;33768;48.578;11.574;2023-03-21T07:52:57;8.30;;;4.60;;
48002;SDS011;33768;48.578;11.574;2023-03-21T07:56:01;7.30;;;4.50;;
48002;SDS011;33768;48.578;11.574;2023-03-21T07:59:05;9.17;;;5.00;;
48002;SDS011;33768;48.578;11.574;2023-03-21T08:02:13;5.93;;;3.97;;
48002;SDS011;33768;48.578;11.574;2023-03-21T08:05:19;16.40;;;5.03;;
48002;SDS011;33768;48.578;11.574;2023-03-21T08:08:24;6.03;;;3.87;;
48002;SDS011;33768;48.578;11.574;2023-03-21T08:11:29;4.60;;;4.10;;
48002;SDS011;33768;48.578;11.574;2023-03-21T08:14:34;5.23;;;4.07;;
48002;SDS011;33768;48.578;11.574;2023-03-21T08:17:39;7.33;;;4.33;;
48002;SDS011;33768;48.578;11.574;2023-03-21T08:20:43;6.03;;;4.23;;
48002;SDS011;33768;48.578;11.574;2023-03-21T08:23:48;6.93;;;4.20;;
48002;SDS011;33768;48.578;11.574;2023-03-21T08:26:52;6.30;;;4.27;;
48002;SDS011;33768;48.578;11.574;2023-03-21T08:29:56;5.27;;;4.57;;
48002;SDS011;33768;48.578;11.574;2023-03-21T08:33:04;6.33;;;4.17;;
48002;SDS011;33768;48.578;11.574;2023-03-21T08:36:08;5.47;;;4.30;;
48002;SDS011;33768;48.578;11.574;2023-03-21T08:39:13;6.53;;;4.30;;
48002;SDS011;33768;48.578;11.574;2023-03-21T08:42:17;12.33;;;4.57;;
48002;SDS011;33768;48.578;11.574;2023-03-21T08:45:22;10.07;;;4.50;;
48002;SDS011;33768;48.578;11.574;2023-03-21T08:48:27;7.27;;;4.53;;
48002;SDS011;33768;48.578;11.574;2023-03-21T08:51:31;7.17;;;4.57;;
48002;SDS011;33768;48.578;11.574;2023-03-21T08:54:36;4.40;;;3.80;;
48002;SDS011;33768;48.578;11.574;2023-03-21T08:57:41;8.00;;;4.27;;
48002;SDS011;33768;48.578;11.574;2023-03-21T09:00:45;7.17;;;4.10;;
48002;SDS011;33768;48.578;11.574;2023-03-21T09:03:49;6.87;;;4.00;;
48002;SDS011;33768;48.578;11.574;2023-03-21T09:06:53;8.17;;;4.10;;
48002;SDS011;33768;48.578;11.574;2023-03-21T09:09:58;7.33;;;3.53;;
48002;SDS011;33768;48.578;11.574;2023-03-21T09:13:03;10.57;;;3.83;;
48002;SDS011;33768;48.578;11.574;2023-03-21T09:16:07;5.60;;;3.67;;
48002;SDS011;33768;48.578;11.574;2023-03-21T09:19:11;5.47;;;3.30;;
48002;SDS011;33768;48.578;11.574;2023-03-21T09:22:15;4.77;;;3.13;;
48002;SDS011;33768;48.578;11.574;2023-03-21T09:25:26;5.43;;;3.10;;
48002;SDS011;33768;48.578;11.574;2023-03-21T09:28:34;4.13;;;2.97;;
48002;SDS011;33768;48.578;11.574;2023-03-21T09:31:39;4.93;;;3.37;;
48002;SDS011;33768;48.578;11.574;2023-03-21T09:34:46;5.50;;;2.57;;
48002;SDS011;33768;48.578;11.574;2023-03-21T09:37:51;2.80;;;2.50;;
48002;SDS011;33768;48.578;11.574;2023-03-21T09:41:00;4.83;;;2.80;;
48002;SDS011;33768;48.578;11.574;2023-03-21T09:44:30;5.33;;;2.93;;
48002;SDS011;33768;48.578;11.574;2023-03-21T09:47:43;3.70;;;2.63;;
48002;SDS011;33768;48.578;11.574;2023-03-21T09:50:55;2.53;;;1.90;;
48002;SDS011;33768;48.578;11.574;2023-03-21T09:54:02;9.73;;;2.60;;
48002;SDS011;33768;48.578;11.574;2023-03-21T09:57:23;3.63;;;2.27;;
48002;SDS011;33768;48.578;11.574;2023-03-21T10:00:44;4.50;;;2.67;;
48002;SDS011;33768;48.578;11.574;2023-03-21T10:03:53;3.80;;;3.07;;
48002;SDS011;33768;48.578;11.574;2023-03-21T10:06:59;4.53;;;3.20;;
48002;SDS011;33768;48.578;11.574;2023-03-21T10:10:05;3.17;;;2.60;;
48002;SDS011;33768;48.578;11.574;2023-03-21T10:13:20;4.77;;;2.83;;
48002;SDS011;33768;48.578;11.574;2023-03-21T10:16:29;4.03;;;2.70;;
48002;SDS011;33768;48.578;11.574;2023-03-21T10:19:34;5.20;;;2.83;;
48002;SDS011;33768;48.578;11.574;2023-03-21T10:22:38;3.63;;;3.00;;
48002;SDS011;33768;48.578;11.574;2023-03-21T10:25:47;5.10;;;3.20;;
48002;SDS011;33768;48.578;11.574;2023-03-21T10:28:54;3.93;;;2.83;;
48002;SDS011;33768;48.578;11.574;2023-03-21T10:32:01;5.30;;;3.03;;
48002;SDS011;33768;48.578;11.574;2023-03-21T10:35:06;4.10;;;3.20;;
48002;SDS011;33768;48.578;11.574;2023-03-21T10:38:14;3.90;;;3.30;;
48002;SDS011;33768;48.578;11.574;2023-03-21T10:41:20;5.10;;;3.10;;
48002;SDS011;33768;48.578;11.574;2023-03-21T10:44:29;5.57;;;3.30;;
48002;SDS011;33768;48.578;11.574;2023-03-21T10:47:35;4.00;;;3.10;;
48002;SDS011;33768;48.578;11.574;2023-03-21T10:50:39;4.90;;;3.00;;
48002;SDS011;33768;48.578;11.574;2023-03-21T10:53:46;6.83;;;2.97;;
48002;SDS011;33768;48.578;11.574;2023-03-21T11:00:12;4.00;;;2.90;;
48002;SDS011;33768;48.578;11.574;2023-03-21T11:03:26;4.20;;;3.10;;
48002;SDS011;33768;48.578;11.574;2023-03-21T11:06:35;2.93;;;2.50;;
48002;SDS011;33768;48.578;11.574;2023-03-21T11:09:46;4.87;;;2.63;;
48002;SDS011;33768;48.578;11.574;2023-03-21T11:12:53;3.77;;;2.50;;
48002;SDS011;33768;48.578;11.574;2023-03-21T11:16:04;7.20;;;2.53;;
48002;SDS011;33768;48.578;11.574;2023-03-21T11:19:13;3.60;;;2.30;;
48002;SDS011;33768;48.578;11.574;2023-03-21T11:22:23;3.53;;;2.23;;
48002;SDS011;33768;48.578;11.574;2023-03-21T11:25:37;2.90;;;2.17;;
48002;SDS011;33768;48.578;11.574;2023-03-21T11:28:44;2.83;;;2.53;;
48002;SDS011;33768;48.578;11.574;2023-03-21T11:31:49;4.37;;;2.43;;
48002;SDS011;33768;48.578;11.574;2023-03-21T11:38:05;2.93;;;2.47;;
48002;SDS011;33768;48.578;11.574;2023-03-21T11:41:30;5.27;;;2.10;;
48002;SDS011;33768;48.578;11.574;2023-03-21T11:44:40;5.53;;;2.10;;
48002;SDS011;33768;48.578;11.574;2023-03-21T11:47:47;3.53;;;2.70;;
48002;SDS011;33768;48.578;11.574;2023-03-21T11:51:00;6.17;;;2.43;;
48002;SDS011;33768;48.578;11.574;2023-03-21T11:54:21;4.93;;;2.60;;
48002;SDS011;33768;48.578;11.574;2023-03-21T11:57:56;2.80;;;2.23;;
48002;SDS011;33768;48.578;11.574;2023-03-21T12:14:26;4.33;;;2.50;;
48002;SDS011;33768;48.578;11.574;2023-03-21T12:24:57;4.00;;;2.90;;
48002;SDS011;33768;48.578;11.574;2023-03-21T12:32:09;3.40;;;2.57;;
48002;SDS011;33768;48.578;11.574;2023-03-21T12:35:33;2.97;;;2.40;;
48002;SDS011;33768;48.578;11.574;2023-03-21T12:38:55;2.37;;;1.87;;
48002;SDS011;33768;48.578;11.574;2023-03-21T12:45:25;7.43;;;2.77;;
48002;SDS011;33768;48.578;11.574;2023-03-21T12:48:39;3.07;;;2.50;;
48002;SDS011;33768;48.578;11.574;2023-03-21T12:51:49;5.33;;;2.47;;
48002;SDS011;33768;48.578;11.574;2023-03-21T12:54:59;3.33;;;2.40;;
48002;SDS011;33768;48.578;11.574;2023-03-21T12:58:10;4.37;;;2.67;;
48002;SDS011;33768;48.578;11.574;2023-03-21T13:01:22;3.23;;;2.50;;
48002;SDS011;33768;48.578;11.574;2023-03-21T13:04:41;2.47;;;2.23;;
48002;SDS011;33768;48.578;11.574;2023-03-21T13:07:51;2.97;;;2.67;;
48002;SDS011;33768;48.578;11.574;2023-03-21T13:11:00;7.67;;;2.03;;
48002;SDS011;33768;48.578;11.574;2023-03-21T13:14:07;2.77;;;2.37;;
48002;SDS011;33768;48.578;11.574;2023-03-21T13:17:23;3.23;;;2.83;;
48002;SDS011;33768;48.578;11.574;2023-03-21T13:20:44;2.90;;;1.97;;
48002;SDS011;33768;48.578;11.574;2023-03-21T13:23:57;3.00;;;2.67;;
48002;SDS011;33768;48.578;11.574;2023-03-21T13:27:27;2.90;;;2.37;;
48002;SDS011;33768;48.578;11.574;2023-03-21T13:30:32;3.93;;;3.20;;
48002;SDS011;33768;48.578;11.574;2023-03-21T13:33:36;6.57;;;2.40;;
48002;SDS011;33768;48.578;11.574;2023-03-21T13:36:47;13.50;;;3.40;;
48002;SDS011;33768;48.578;11.574;2023-03-21T13:39:53;3.93;;;2.60;;
48002;SDS011;33768;48.578;11.574;2023-03-21T13:43:04;4.57;;;3.30;;
48002;SDS011;33768;48.578;11.574;2023-03-21T13:46:52;3.80;;;3.10;;
48002;SDS011;33768;48.578;11.574;2023-03-21T13:53:21;3.70;;;2.77;;
48002;SDS011;33768;48.578;11.574;2023-03-21T13:56:28;3.20;;;2.70;;
48002;SDS011;33768;48.578;11.574;2023-03-21T14:02:49;4.33;;;2.40;;
48002;SDS011;33768;48.578;11.574;2023-03-21T14:05:57;5.97;;;2.40;;
48002;SDS011;33768;48.578;11.574;2023-03-21T14:09:01;3.97;;;2.77;;
48002;SDS011;33768;48.578;11.574;2023-03-21T14:12:08;4.30;;;2.30;;
48002;SDS011;33768;48.578;11.574;2023-03-21T14:18:40;7.83;;;2.90;;
48002;SDS011;33768;48.578;11.574;2023-03-21T14:21:48;3.97;;;2.90;;
48002;SDS011;33768;48.578;11.574;2023-03-21T14:24:58;5.93;;;3.07;;
48002;SDS011;33768;48.578;11.574;2023-03-21T14:28:04;11.30;;;3.10;;
48002;SDS011;33768;48.578;11.574;2023-03-21T14:31:12;13.10;;;3.73;;
48002;SDS011;33768;48.578;11.574;2023-03-21T14:34:19;4.27;;;2.60;;
48002;SDS011;33768;48.578;11.574;2023-03-21T14:37:25;4.20;;;3.10;;
48002;SDS011;33768;48.578;11.574;2023-03-21T14:40:31;4.10;;;2.80;;
48002;SDS011;33768;48.578;11.574;2023-03-21T14:43:36;4.27;;;3.10;;
48002;SDS011;33768;48.578;11.574;2023-03-21T14:46:40;2.97;;;1.97;;
48002;SDS011;33768;48.578;11.574;2023-03-21T14:49:45;7.03;;;3.03;;
48002;SDS011;33768;48.578;11.574;2023-03-21T14:52:51;3.23;;;2.57;;
48002;SDS011;33768;48.578;11.574;2023-03-21T14:56:00;3.30;;;2.57;;
48002;SDS011;33768;48.578;11.574;2023-03-21T14:59:13;4.57;;;3.37;;
48002;SDS011;33768;48.578;11.574;2023-03-21T15:02:24;6.40;;;2.80;;
48002;SDS011;33768;48.578;11.574;2023-03-21T15:05:34;3.00;;;2.70;;
48002;SDS011;33768;48.578;11.574;2023-03-21T15:08:51;4.00;;;2.90;;
48002;SDS011;33768;48.578;11.574;2023-03-21T15:12:00;5.13;;;3.23;;
48002;SDS011;33768;48.578;11.574;2023-03-21T15:15:12;12.03;;;3.00;;
48002;SDS011;33768;48.578;11.574;2023-03-21T15:18:19;4.80;;;3.20;;
48002;SDS011;33768;48.578;11.574;2023-03-21T15:21:34;6.23;;;3.20;;
48002;SDS011;33768;48.578;11.574;2023-03-21T15:24:42;4.20;;;3.53;;
48002;SDS011;33768;48.578;11.574;2023-03-21T15:27:49;3.47;;;3.00;;
48002;SDS011;33768;48.578;11.574;2023-03-21T15:30:53;3.93;;;3.00;;
48002;SDS011;33768;48.578;11.574;2023-03-21T15:33:58;4.60;;;2.77;;
48002;SDS011;33768;48.578;11.574;2023-03-21T15:37:03;4.40;;;3.27;;
48002;SDS011;33768;48.578;11.574;2023-03-21T15:43:23;4.27;;;3.17;;
48002;SDS011;33768;48.578;11.574;2023-03-21T15:46:41;3.30;;;2.87;;
48002;SDS011;33768;48.578;11.574;2023-03-21T15:49:46;4.60;;;3.03;;
48002;SDS011;33768;48.578;11.574;2023-03-21T15:52:59;4.73;;;2.93;;
48002;SDS011;33768;48.578;11.574;2023-03-21T15:56:05;3.90;;;2.87;;
48002;SDS011;33768;48.578;11.574;2023-03-21T15:59:19;4.13;;;2.70;;
48002;SDS011;33768;48.578;11.574;2023-03-21T16:02:27;10.30;;;4.00;;
48002;SDS011;33768;48.578;11.574;2023-03-21T16:05:33;4.63;;;3.10;;
48002;SDS011;33768;48.578;11.574;2023-03-21T16:08:41;4.73;;;3.10;;
48002;SDS011;33768;48.578;11.574;2023-03-21T16:11:54;5.10;;;2.93;;
48002;SDS011;33768;48.578;11.574;2023-03-21T16:15:00;5.77;;;3.30;;
48002;SDS011;33768;48.578;11.574;2023-03-21T16:18:05;4.90;;;2.80;;
48002;SDS011;33768;48.578;11.574;2023-03-21T16:21:13;4.97;;;3.20;;
48002;SDS011;33768;48.578;11.574;2023-03-21T16:24:18;4.17;;;3.03;;
48002;SDS011;33768;48.578;11.574;2023-03-21T16:27:23;3.83;;;3.00;;
48002;SDS011;33768;48.578;11.574;2023-03-21T16:30:27;3.37;;;2.80;;
48002;SDS011;33768;48.578;11.574;2023-03-21T16:33:31;2.77;;;2.40;;
48002;SDS011;33768;48.578;11.574;2023-03-21T16:36:36;3.67;;;3.03;;
48002;SDS011;33768;48.578;11.574;2023-03-21T16:39:42;5.33;;;3.37;;
48002;SDS011;33768;48.578;11.574;2023-03-21T16:42:46;4.63;;;2.80;;
48002;SDS011;33768;48.578;11.574;2023-03-21T16:45:50;6.33;;;2.90;;
48002;SDS011;33768;48.578;11.574;2023-03-21T16:48:55;8.63;;;2.83;;
48002;SDS011;33768;48.578;11.574;2023-03-21T16:52:00;13.07;;;3.60;;
48002;SDS011;33768;48.578;11.574;2023-03-21T16:55:04;11.27;;;3.23;;
48002;SDS011;33768;48.578;11.574;2023-03-21T16:58:13;16.93;;;8.27;;
48002;SDS011;33768;48.578;11.574;2023-03-21T17:01:19;13.87;;;6.13;;
48002;SDS011;33768;48.578;11.574;2023-03-21T17:04:24;10.00;;;4.63;;
48002;SDS011;33768;48.578;11.574;2023-03-21T17:07:28;24.33;;;4.43;;
48002;SDS011;33768;48.578;11.574;2023-03-21T17:10:32;27.03;;;4.03;;
48002;SDS011;33768;48.578;11.574;2023-03-21T17:13:36;13.60;;;3.33;;
48002;SDS011;33768;48.578;11.574;2023-03-21T17:16:40;11.47;;;3.10;;
48002;SDS011;33768;48.578;11.574;2023-03-21T17:19:45;7.53;;;2.40;;
48002;SDS011;33768;48.578;11.574;2023-03-21T17:22:50;17.13;;;2.83;;
48002;SDS011;33768;48.578;11.574;2023-03-21T17:25:54;5.83;;;2.23;;
48002;SDS011;33768;48.578;11.574;2023-03-21T17:28:59;6.03;;;2.67;;
48002;SDS011;33768;48.578;11.574;2023-03-21T17:32:03;4.67;;;2.47;;
48002;SDS011;33768;48.578;11.574;2023-03-21T17:35:09;4.23;;;1.80;;
48002;SDS011;33768;48.578;11.574;2023-03-21T17:38:14;5.57;;;2.60;;
48002;SDS011;33768;48.578;11.574;2023-03-21T17:41:20;3.30;;;1.60;;
48002;SDS011;33768;48.578;11.574;2023-03-21T17:44:25;2.43;;;1.73;;
48002;SDS011;33768;48.578;11.574;2023-03-21T17:47:29;3.03;;;2.20;;
48002;SDS011;33768;48.578;11.574;2023-03-21T17:50:35;3.97;;;1.83;;
48002;SDS011;33768;48.578;11.574;2023-03-21T17:53:40;2.27;;;1.73;;
48002;SDS011;33768;48.578;11.574;2023-03-21T17:56:48;2.33;;;1.63;;
48002;SDS011;33768;48.578;11.574;2023-03-21T17:59:52;2.40;;;1.70;;
48002;SDS011;33768;48.578;11.574;2023-03-21T18:02:56;5.73;;;1.70;;
48002;SDS011;33768;48.578;11.574;2023-03-21T18:06:01;2.97;;;1.70;;
48002;SDS011;33768;48.578;11.574;2023-03-21T18:09:06;4.40;;;1.97;;
48002;SDS011;33768;48.578;11.574;2023-03-21T18:12:13;2.57;;;1.60;;
48002;SDS011;33768;48.578;11.574;2023-03-21T18:15:17;5.27;;;2.03;;
48002;SDS011;33768;48.578;11.574;2023-03-21T18:18:23;2.20;;;1.60;;
48002;SDS011;33768;48.578;11.574;2023-03-21T18:21:29;2.60;;;1.67;;
48002;SDS011;33768;48.578;11.574;2023-03-21T18:24:34;2.10;;;1.80;;
48002;SDS011;33768;48.578;11.574;2023-03-21T18:27:38;2.00;;;1.63;;
48002;SDS011;33768;48.578;11.574;2023-03-21T18:30:44;2.33;;;1.77;;
48002;SDS011;33768;48.578;11.574;2023-03-21T18:33:48;4.13;;;1.90;;
48002;SDS011;33768;48.578;11.574;2023-03-21T18:36:53;2.33;;;1.77;;
48002;SDS011;33768;48.578;11.574;2023-03-21T18:39:57;3.33;;;1.87;;
48002;SDS011;33768;48.578;11.574;2023-03-21T18:43:01;2.93;;;2.30;;
48002;SDS011;33768;48.578;11.574;2023-03-21T18:46:06;3.93;;;2.40;;
48002;SDS011;33768;48.578;11.574;2023-03-21T18:49:14;2.87;;;2.20;;
48002;SDS011;33768;48.578;11.574;2023-03-21T18:52:19;4.70;;;2.30;;
48002;SDS011;33768;48.578;11.574;2023-03-21T18:55:23;3.67;;;1.97;;
48002;SDS011;33768;48.578;11.574;2023-03-21T18:58:27;2.57;;;1.90;;
48002;SDS011;33768;48.578;11.574;2023-03-21T19:01:31;2.13;;;1.80;;
48002;SDS011;33768;48.578;11.574;2023-03-21T19:04:35;2.07;;;1.63;;
48002;SDS011;33768;48.578;11.574;2023-03-21T19:07:39;4.00;;;2.10;;
48002;SDS011;33768;48.578;11.574;2023-03-21T19:10:44;6.30;;;2.10;;
48002;SDS011;33768;48.578;11.574;2023-03-21T19:13:49;3.63;;;1.90;;
48002;SDS011;33768;48.578;11.574;2023-03-21T19:16:55;3.37;;;1.90;;
48002;SDS011;33768;48.578;11.574;2023-03-21T19:20:02;5.07;;;2.03;;
48002;SDS011;33768;48.578;11.574;2023-03-21T19:23:07;5.37;;;2.20;;
48002;SDS011;33768;48.578;11.574;2023-03-21T19:26:11;3.90;;;1.90;;
48002;SDS011;33768;48.578;11.574;2023-03-21T19:29:15;3.83;;;2.10;;
48002;SDS011;33768;48.578;11.574;2023-03-21T19:32:19;3.47;;;1.80;;
48002;SDS011;33768;48.578;11.574;2023-03-21T19:35:25;3.63;;;1.83;;
48002;SDS011;33768;48.578;11.574;2023-03-21T19:38:29;5.17;;;2.20;;
48002;SDS011;33768;48.578;11.574;2023-03-21T19:41:34;3.10;;;2.20;;
48002;SDS011;33768;48.578;11.574;2023-03-21T19:44:38;3.40;;;2.53;;
48002;SDS011;33768;48.578;11.574;2023-03-21T19:47:42;2.20;;;1.77;;